CPX261 Details

Departure: Kansas City International Airport (KMCI)
Arrival: General Edward Lawrence Logan International Airport (KBOS)
Route: LAKES2 SPI ROD KLYNE Q29 JHW Q82 PONCT JFUND2
Notes: METROAIR CARGO SUPPORT


Current Weather Information
KMCI 251003Z 19013KT 10SM -RA FEW050 SCT070 OVC095 18/17 A2994 RMK AO2 P0001 T01830167 $
KBOS 250954Z 29007KT 10SM FEW220 13/07 A3017 RMK AO2 SLP217 T01280067 $